Time;durP1;ratioP1;P1;durP2;ratioP2;P2;SDS_P1;SDS_P2;PMS_P1;PMS_P2;Temp;Humidity;BMP_temperature;BMP_pressure;BME280_temperature;BME280_humidity;BME280_pressure;Samples;Min_cycle;Max_cycle;Signal;HPM_P1;HPM_P2
2023/01/12 00:01:34;;;;;;;9.77;7.25;;;;;;;2.28;100.00;62234.88;5088247;28;20217;-80
2023/01/12 00:04:02;;;;;;;8.27;5.97;;;;;;;2.42;100.00;62245.72;5091167;28;20513;-79
2023/01/12 00:06:31;;;;;;;8.70;6.43;;;;;;;2.46;100.00;62252.31;5081089;28;20248;-81
2023/01/12 00:08:58;;;;;;;8.25;6.45;;;;;;;2.24;100.00;62237.78;5069747;28;20201;-83
2023/01/12 00:11:26;;;;;;;9.30;6.38;;;;;;;2.27;100.00;62235.84;5070094;28;20233;-80
2023/01/12 00:13:53;;;;;;;9.35;6.80;;;;;;;2.34;100.00;62238.00;5073588;28;20215;-80
2023/01/12 00:16:36;;;;;;;7.88;5.95;;;;;;;2.36;100.00;62240.56;5090634;28;20244;-84
2023/01/12 00:19:09;;;;;;;8.15;6.07;;;;;;;2.52;100.00;62253.97;5095677;28;20204;-81
2023/01/12 00:21:55;;;;;;;8.07;6.72;;;;;;;2.59;100.00;62266.19;5084695;28;20229;-83
2023/01/12 00:24:24;;;;;;;8.43;6.35;;;;;;;2.63;100.00;62269.78;5075011;28;20189;-84
2023/01/12 00:26:53;;;;;;;11.32;7.68;;;;;;;2.62;100.00;62266.78;5086131;28;20234;-80
2023/01/12 00:29:21;;;;;;;8.75;6.15;;;;;;;2.52;100.00;62255.97;5093392;28;20200;-84
2023/01/12 00:31:48;;;;;;;6.60;5.60;;;;;;;2.66;100.00;62273.38;5091199;28;20252;-79
2023/01/12 00:34:16;;;;;;;5.65;5.15;;;;;;;2.53;100.00;62262.53;5078568;28;20261;-83
2023/01/12 00:36:45;;;;;;;8.15;5.63;;;;;;;2.74;100.00;62281.09;5076081;28;20273;-80
2023/01/12 00:39:13;;;;;;;7.63;5.50;;;;;;;2.74;100.00;62284.13;5073781;28;20537;-81
2023/01/12 00:47:11;;;;;;;5.78;5.18;;;;;;;2.67;100.00;62271.91;5092813;28;20222;-83
2023/01/12 00:49:39;;;;;;;6.55;5.22;;;;;;;2.38;100.00;62240.09;5096761;28;20298;-82
2023/01/12 00:52:10;;;;;;;5.18;4.68;;;;;;;2.60;100.00;62272.25;5095967;28;20217;-83
2023/01/12 00:54:37;;;;;;;7.38;5.05;;;;;;;2.72;100.00;62279.03;5093119;28;20189;-83
2023/01/12 00:57:05;;;;;;;5.88;5.30;;;;;;;2.79;100.00;62289.25;5074756;28;20260;-80
2023/01/12 00:59:32;;;;;;;5.13;4.63;;;;;;;2.84;100.00;62288.84;5073591;28;20397;-80
2023/01/12 01:01:59;;;;;;;5.50;4.80;;;;;;;2.49;100.00;62255.91;5073098;28;20226;-82
2023/01/12 01:04:27;;;;;;;5.63;4.63;;;;;;;2.44;100.00;62245.75;5075250;28;20201;-84
2023/01/12 01:06:54;;;;;;;5.47;4.85;;;;;;;2.32;100.00;62241.50;5074834;28;20564;-80
2023/01/12 01:09:22;;;;;;;5.18;4.65;;;;;;;2.69;100.00;62273.97;5072752;28;20202;-83
2023/01/12 01:11:49;;;;;;;5.40;4.90;;;;;;;2.57;100.00;62266.66;5089986;28;20275;-80
2023/01/12 01:14:16;;;;;;;7.38;5.13;;;;;;;2.74;100.00;62281.63;5092263;28;20276;-84
2023/01/12 01:16:43;;;;;;;6.07;4.72;;;;;;;2.49;100.00;62255.41;5074342;28;20284;-83
2023/01/12 01:19:10;;;;;;;6.55;4.93;;;;;;;2.64;100.00;62265.78;5078757;28;20204;-84
2023/01/12 01:21:39;;;;;;;5.35;4.43;;;;;;;2.39;100.00;62248.16;5072775;28;20248;-83
2023/01/12 01:24:10;;;;;;;5.95;4.88;;;;;;;2.62;100.00;62266.25;5073151;28;20205;-81
2023/01/12 01:26:39;;;;;;;5.00;4.05;;;;;;;2.62;100.00;62266.78;5075179;28;20243;-83
2023/01/12 01:29:06;;;;;;;5.32;4.78;;;;;;;2.58;100.00;62265.16;5073802;28;20198;-81
2023/01/12 01:31:33;;;;;;;4.55;4.15;;;;;;;2.27;100.00;62230.81;5074037;28;20228;-82
2023/01/12 01:34:00;;;;;;;4.53;4.10;;;;;;;2.57;100.00;62264.16;5074792;28;20205;-80
2023/01/12 01:36:27;;;;;;;5.85;4.57;;;;;;;2.61;100.00;62265.72;5090929;28;20228;-80
2023/01/12 01:38:55;;;;;;;5.03;4.35;;;;;;;2.63;100.00;62272.31;5095307;28;20203;-83
2023/01/12 01:41:25;;;;;;;6.32;4.60;;;;;;;2.62;100.00;62266.25;5091461;28;20422;-81
2023/01/12 01:43:57;;;;;;;6.55;4.93;;;;;;;2.61;100.00;62270.75;5092067;28;20197;-80
2023/01/12 01:46:36;;;;;;;4.75;4.22;;;;;;;2.68;100.00;62274.91;5093806;28;20232;-80
2023/01/12 01:49:14;;;;;;;4.95;4.35;;;;;;;2.60;100.00;62272.25;5078912;28;20213;-82
2023/01/12 01:51:42;;;;;;;5.32;4.32;;;;;;;2.50;100.00;62256.97;5070871;28;20217;-80
2023/01/12 01:54:09;;;;;;;7.30;5.53;;;;;;;2.62;100.00;62266.78;5072560;28;20197;-81
2023/01/12 01:56:37;;;;;;;7.43;5.32;;;;;;;2.60;100.00;62272.25;5071192;28;20278;-80
2023/01/12 01:59:09;;;;;;;5.03;4.53;;;;;;;2.76;100.00;62283.16;5072950;28;20297;-84
2023/01/12 02:01:37;;;;;;;6.50;4.30;;;;;;;2.52;100.00;62261.50;5074241;28;20248;-81
2023/01/12 02:04:05;;;;;;;4.63;4.28;;;;;;;2.62;100.00;62271.81;5069965;28;20208;-81
2023/01/12 02:06:33;;;;;;;7.25;5.07;;;;;;;2.77;100.00;62286.69;5069625;28;20226;-80
2023/01/12 02:09:04;;;;;;;7.75;4.90;;;;;;;2.85;100.00;62292.38;5075080;28;20274;-81
2023/01/12 02:17:22;;;;;;;7.10;4.85;;;;;;;2.55;100.00;62261.56;5038069;28;20209;-83
2023/01/12 02:20:26;;;;;;;7.30;4.00;;;;;;;2.76;100.00;62278.63;5075435;28;20204;-80
2023/01/12 02:23:27;;;;;;;5.95;5.00;;;;;;;2.70;100.00;62274.97;5095168;28;20226;-81
2023/01/12 02:26:21;;;;;;;5.35;4.85;;;;;;;2.53;100.00;62262.03;5093309;28;20223;-84
2023/01/12 02:29:33;;;;;;;5.35;4.72;;;;;;;2.60;100.00;62269.22;5072062;28;20252;-80
2023/01/12 02:32:10;;;;;;;5.57;4.60;;;;;;;2.71;100.00;62281.03;4996448;28;20269;-81
2023/01/12 02:34:46;;;;;;;4.85;4.38;;;;;;;2.58;100.00;62264.66;5069419;28;20336;-82
2023/01/12 02:37:21;;;;;;;6.85;5.00;;;;;;;2.42;100.00;62248.22;5072218;28;20255;-80
2023/01/12 02:39:57;;;;;;;5.47;4.68;;;;;;;2.35;100.00;62241.53;5074487;28;20250;-83
2023/01/12 02:42:46;;;;;;;5.50;4.97;;;;;;;2.28;100.00;62234.34;5073767;28;20248;-80
2023/01/12 02:45:23;;;;;;;6.50;5.30;;;;;;;2.47;100.00;62251.34;5087363;28;20196;-81
2023/01/12 02:47:57;;;;;;;5.90;5.30;;;;;;;2.54;100.00;62258.03;5089793;28;20262;-80
2023/01/12 02:50:31;;;;;;;8.07;4.85;;;;;;;2.37;100.00;62243.59;5075579;28;20310;-80
2023/01/12 02:53:04;;;;;;;5.55;5.05;;;;;;;2.46;100.00;62249.81;5074335;28;20201;-84
2023/01/12 02:55:33;;;;;;;7.13;5.35;;;;;;;2.32;100.00;62235.94;5074667;28;20261;-82
2023/01/12 02:58:02;;;;;;;6.18;5.40;;;;;;;2.38;100.00;62244.13;5081458;28;20256;-83
2023/01/12 03:00:30;;;;;;;6.97;5.75;;;;;;;2.26;100.00;62232.31;5090811;28;20197;-82
2023/01/12 03:02:58;;;;;;;9.30;6.57;;;;;;;2.34;100.00;62240.53;5087798;28;20200;-83
2023/01/12 03:05:25;;;;;;;6.57;5.93;;;;;;;2.54;100.00;62258.53;5090939;28;20201;-79
2023/01/12 03:07:55;;;;;;;7.68;5.50;;;;;;;2.38;100.00;62245.13;5082632;28;20289;-82
2023/01/12 03:10:59;;;;;;;7.25;5.85;;;;;;;2.08;100.00;62213.81;5071353;28;20368;-83
2023/01/12 03:13:28;;;;;;;10.18;6.20;;;;;;;1.93;100.00;62201.44;5070120;28;20272;-83
2023/01/12 03:15:57;;;;;;;10.05;6.70;;;;;;;2.31;100.00;62237.94;5074229;28;20216;-80
2023/01/12 03:18:32;;;;;;;7.60;6.03;;;;;;;2.30;100.00;62234.41;5093206;28;20197;-81
2023/01/12 03:21:04;;;;;;;8.70;6.55;;;;;;;1.83;100.00;62185.66;5091956;28;20253;-81
2023/01/12 03:23:40;;;;;;;8.60;6.43;;;;;;;2.18;100.00;62221.56;5090986;28;20231;-84
2023/01/12 03:26:10;;;;;;;9.85;6.82;;;;;;;2.12;100.00;62215.41;5074429;28;20240;-82
2023/01/12 03:28:42;;;;;;;6.80;5.78;;;;;;;2.11;100.00;62222.44;5075756;28;20238;-82
2023/01/12 03:31:12;;;;;;;7.47;5.60;;;;;;;2.24;100.00;62227.75;5088313;28;20221;-82
2023/01/12 03:33:42;;;;;;;7.55;5.95;;;;;;;2.06;100.00;62209.25;5090281;28;20296;-83
2023/01/12 03:36:16;;;;;;;9.05;5.90;;;;;;;2.04;100.00;62212.22;5084154;28;20259;-81
2023/01/12 03:38:51;;;;;;;8.77;6.00;;;;;;;2.12;100.00;62218.44;5069949;28;20212;-81
2023/01/12 03:41:30;;;;;;;6.82;5.30;;;;;;;2.34;100.00;62238.53;5071175;28;20220;-83
2023/01/12 03:44:02;;;;;;;6.70;5.13;;;;;;;2.31;100.00;62237.44;5068860;28;20283;-80
2023/01/12 03:46:32;;;;;;;5.57;5.03;;;;;;;2.31;100.00;62237.44;5067521;28;20279;-83
2023/01/12 03:49:07;;;;;;;7.43;5.15;;;;;;;2.28;100.00;62231.84;5073679;28;20216;-82
2023/01/12 03:51:39;;;;;;;6.30;5.22;;;;;;;2.34;100.00;62241.03;5082477;28;20228;-82
2023/01/12 03:54:10;;;;;;;6.13;4.75;;;;;;;2.15;100.00;62219.00;5081610;28;20193;-82
2023/01/12 03:56:39;;;;;;;5.78;4.85;;;;;;;2.34;100.00;62238.53;5069967;28;20248;-82
2023/01/12 03:59:08;;;;;;;5.35;4.72;;;;;;;2.21;100.00;62225.16;5068350;28;20209;-81
2023/01/12 04:01:36;;;;;;;5.47;4.55;;;;;;;2.35;100.00;62239.03;5073800;28;20225;-80
2023/01/12 04:04:04;;;;;;;6.30;5.10;;;;;;;2.33;100.00;62240.00;5070590;28;20197;-82
2023/01/12 04:06:31;;;;;;;5.85;5.25;;;;;;;2.45;100.00;62248.78;5072277;28;20233;-79
2023/01/12 04:08:58;;;;;;;5.93;4.65;;;;;;;2.23;100.00;62229.22;5068607;28;20561;-82
2023/01/12 04:14:09;;;;;;;5.65;5.03;;;;;;;2.27;100.00;62231.34;5071336;28;20242;-81
2023/01/12 04:16:36;;;;;;;5.57;4.82;;;;;;;2.52;100.00;62261.50;5071184;28;20213;-82
2023/01/12 04:19:04;;;;;;;4.55;4.05;;;;;;;2.38;100.00;62244.63;5073548;28;20202;-83
2023/01/12 04:24:16;;;;;;;6.68;4.50;;;;;;;2.20;100.00;62221.63;5071082;28;20370;-82
2023/01/12 04:26:43;;;;;;;7.68;4.60;;;;;;;2.04;100.00;62209.69;5069369;28;20224;-83
2023/01/12 04:29:10;;;;;;;9.00;5.22;;;;;;;2.17;100.00;62223.56;5072396;28;20276;-81
2023/01/12 04:31:38;;;;;;;7.22;5.35;;;;;;;2.05;100.00;62213.25;5082163;28;20227;-80
2023/01/12 04:34:06;;;;;;;7.90;5.60;;;;;;;2.30;100.00;62233.88;5092399;28;20197;-81
2023/01/12 04:36:34;;;;;;;6.50;4.90;;;;;;;2.49;100.00;62255.41;5090343;28;20221;-83
2023/01/12 04:39:01;;;;;;;7.32;5.35;;;;;;;2.63;100.00;62272.31;5083441;28;20212;-81
2023/01/12 04:41:28;;;;;;;6.68;5.10;;;;;;;2.58;100.00;62262.66;5069221;28;20229;-84
2023/01/12 04:43:55;;;;;;;8.32;6.10;;;;;;;2.61;100.00;62265.72;5082974;28;20196;-82
2023/01/12 04:46:23;;;;;;;7.10;5.10;;;;;;;2.45;100.00;62248.78;5094111;28;20217;-84
2023/01/12 04:48:50;;;;;;;12.52;7.10;;;;;;;2.26;100.00;62234.81;5087664;28;20228;-81
2023/01/12 04:51:19;;;;;;;10.02;5.72;;;;;;;2.15;100.00;62215.97;5090799;28;20224;-82
2023/01/12 04:53:47;;;;;;;7.07;5.72;;;;;;;2.45;100.00;62256.31;5091222;28;20223;-83
2023/01/12 04:56:14;;;;;;;9.07;5.75;;;;;;;2.59;100.00;62265.69;5091518;28;20608;-79
2023/01/12 04:58:42;;;;;;;7.03;5.47;;;;;;;2.40;100.00;62246.16;5093894;28;20220;-81
2023/01/12 05:01:10;;;;;;;7.93;5.70;;;;;;;2.18;100.00;62227.09;5092600;28;20232;-83
2023/01/12 05:03:38;;;;;;;7.72;5.63;;;;;;;2.48;100.00;62251.88;5089449;28;20211;-82
2023/01/12 05:06:06;;;;;;;8.18;6.20;;;;;;;2.64;100.00;62270.81;5113421;22;20228;-83
2023/01/12 05:11:28;;;;;;;5.93;4.90;;;;;;;2.12;100.00;62218.44;5077728;28;20228;-81
2023/01/12 05:13:56;;;;;;;6.43;4.47;;;;;;;2.14;100.00;62219.97;5090458;28;20223;-84
2023/01/12 05:16:25;;;;;;;5.10;4.57;;;;;;;2.16;100.00;62215.00;5085371;28;20226;-83
2023/01/12 05:18:53;;;;;;;4.60;4.15;;;;;;;2.20;100.00;62224.16;5093821;28;20207;-80
2023/01/12 05:21:21;;;;;;;5.68;4.90;;;;;;;2.55;100.00;62262.09;5097409;28;20225;-83
2023/01/12 05:23:51;;;;;;;6.88;5.80;;;;;;;2.19;100.00;62225.13;5085490;28;20220;-84
2023/01/12 05:26:18;;;;;;;5.05;4.28;;;;;;;2.66;100.00;62272.88;5094847;28;20221;-81
2023/01/12 05:28:48;;;;;;;4.25;3.40;;;;;;;2.54;100.00;62256.03;5076382;28;20233;-84
2023/01/12 05:31:19;;;;;;;10.75;7.50;;;;;;;2.27;100.00;62228.31;5165509;22;20246;-80
2023/01/12 05:33:49;;;;;;;20.85;14.05;;;;;;;2.60;100.00;62269.75;5094102;28;20422;-82
2023/01/12 05:36:17;;;;;;;170.57;75.65;;;;;;;2.01;100.00;62207.16;5021942;28;20262;-83
2023/01/12 05:38:44;;;;;;;24.10;14.95;;;;;;;2.45;100.00;62251.81;5032003;28;20218;-83
2023/01/12 05:41:13;;;;;;;5.38;4.80;;;;;;;2.57;100.00;62264.16;5035738;28;20214;-82
2023/01/12 05:43:51;;;;;;;6.03;5.15;;;;;;;2.62;100.00;62268.75;5036550;28;20206;-81
2023/01/12 05:46:20;;;;;;;5.18;4.22;;;;;;;2.63;100.00;62270.31;5036211;28;20222;-82
2023/01/12 05:48:48;;;;;;;8.50;6.25;;;;;;;2.56;100.00;62260.59;5036108;28;20269;-82
2023/01/12 05:51:23;;;;;;;7.53;5.90;;;;;;;2.73;100.00;62275.03;5018573;28;20271;-81
2023/01/12 05:53:50;;;;;;;5.00;4.57;;;;;;;2.16;100.00;62222.03;5023672;28;20356;-83
2023/01/12 05:56:21;;;;;;;5.80;5.13;;;;;;;2.78;100.00;62285.72;5028038;28;20222;-84
2023/01/12 05:58:51;;;;;;;8.93;5.93;;;;;;;2.33;100.00;62234.47;5025942;28;20199;-84
2023/01/12 06:01:19;;;;;;;5.80;5.13;;;;;;;2.34;100.00;62232.97;5034316;28;20210;-83
2023/01/12 06:03:49;;;;;;;9.90;5.75;;;;;;;2.75;100.00;62279.59;5032907;28;20262;-83
2023/01/12 06:06:17;;;;;;;8.73;6.20;;;;;;;2.73;100.00;62275.56;5033067;28;20214;-82
2023/01/12 06:08:45;;;;;;;9.13;6.75;;;;;;;2.81;100.00;62286.28;5035013;28;20289;-80
2023/01/12 06:13:55;;;;;;;9.25;6.63;;;;;;;2.79;100.00;62284.25;5035493;28;20225;-83
2023/01/12 06:14:00;;;;;;;5.60;5.03;;;;;;;2.87;100.00;62291.94;5031010;28;20245;-80
2023/01/12 06:16:27;;;;;;;10.73;7.55;;;;;;;2.83;100.00;62290.34;5033547;28;20245;-80
2023/01/12 06:18:55;;;;;;;8.18;5.43;;;;;;;2.75;100.00;62282.13;5032311;28;20205;-82
2023/01/12 06:21:23;;;;;;;5.18;4.40;;;;;;;2.59;100.00;62263.69;5032403;28;20218;-80
2023/01/12 06:23:50;;;;;;;5.40;4.68;;;;;;;2.78;100.00;62285.22;5033245;28;20206;-82
2023/01/12 06:26:17;;;;;;;8.05;5.38;;;;;;;2.51;100.00;62254.94;5037001;28;20214;-84
2023/01/12 06:28:45;;;;;;;5.22;4.72;;;;;;;2.77;100.00;62284.16;5034742;28;20254;-83
2023/01/12 06:31:14;;;;;;;5.25;4.80;;;;;;;2.59;100.00;62268.69;5033190;28;20536;-84
2023/01/12 06:33:41;;;;;;;7.57;5.68;;;;;;;2.28;100.00;62231.84;5034053;28;20500;-79
2023/01/12 06:36:09;;;;;;;6.80;5.60;;;;;;;2.64;100.00;62266.28;5030990;28;20281;-81
2023/01/12 06:38:37;;;;;;;6.18;5.57;;;;;;;2.36;100.00;62243.06;5031558;28;20207;-80
2023/01/12 06:41:05;;;;;;;5.50;4.90;;;;;;;2.45;100.00;62251.31;5032945;28;20223;-82
2023/01/12 06:43:33;;;;;;;6.15;5.43;;;;;;;2.37;100.00;62241.09;5034744;28;20198;-82
2023/01/12 06:46:00;;;;;;;6.10;5.50;;;;;;;2.30;100.00;62238.91;5032894;28;20222;-83
2023/01/12 06:48:28;;;;;;;6.70;5.13;;;;;;;2.44;100.00;62248.28;5032887;28;20234;-81
2023/01/12 06:51:01;;;;;;;6.75;5.28;;;;;;;2.35;100.00;62244.03;5031506;28;20231;-84
2023/01/12 06:53:28;;;;;;;17.90;11.88;;;;;;;2.21;100.00;62227.69;5031493;28;20191;-82
2023/01/12 06:55:55;;;;;;;8.95;6.68;;;;;;;2.59;100.00;62263.19;5034263;28;20258;-82
2023/01/12 06:58:22;;;;;;;6.65;5.60;;;;;;;2.64;100.00;62268.31;5034826;28;20257;-83
2023/01/12 07:00:49;;;;;;;6.03;5.43;;;;;;;2.49;100.00;62260.94;5033644;28;20320;-82
2023/01/12 07:03:18;;;;;;;6.93;5.57;;;;;;;2.18;100.00;62219.56;5031711;28;20225;-81
2023/01/12 07:05:47;;;;;;;7.95;5.85;;;;;;;2.54;100.00;62263.56;5031688;28;20262;-81
2023/01/12 07:08:18;;;;;;;5.15;4.65;;;;;;;2.51;100.00;62259.97;5034208;28;20231;-82
2023/01/12 07:10:46;;;;;;;9.18;5.72;;;;;;;2.15;100.00;62221.00;5037560;28;20225;-82
2023/01/12 07:13:13;;;;;;;5.68;4.90;;;;;;;2.26;100.00;62232.31;5036210;28;20366;-83
2023/01/12 07:15:41;;;;;;;7.88;5.15;;;;;;;2.22;100.00;62228.72;5035379;28;20203;-83
2023/01/12 07:18:08;;;;;;;7.05;5.68;;;;;;;2.50;100.00;62256.97;5033803;28;20241;-80
2023/01/12 07:23:14;;;;;;;5.95;5.00;;;;;;;2.83;100.00;62290.34;5606648;23;20448;-80
2023/01/12 07:25:41;;;;;;;5.15;4.72;;;;;;;2.93;100.00;62298.09;4990387;28;20219;-80
2023/01/12 07:28:08;;;;;;;6.32;3.95;;;;;;;2.92;100.00;62300.09;5007423;28;20834;-81
2023/01/12 07:30:36;;;;;;;4.45;3.97;;;;;;;2.75;100.00;62280.13;5006062;28;20216;-81
2023/01/12 07:33:07;;;;;;;4.97;4.05;;;;;;;2.92;100.00;62299.59;5004116;28;20231;-80
2023/01/12 07:35:34;;;;;;;5.63;4.05;;;;;;;3.05;100.00;62310.97;5003262;28;20202;-80
2023/01/12 07:38:01;;;;;;;5.50;4.45;;;;;;;3.10;100.00;62315.56;4997667;28;20203;-81
2023/01/12 07:40:34;;;;;;;6.90;4.20;;;;;;;2.76;100.00;62283.16;4992400;28;20208;-82
2023/01/12 07:43:01;;;;;;;4.15;3.80;;;;;;;2.32;100.00;62235.94;4988580;28;20258;-81
2023/01/12 07:45:31;;;;;;;4.75;4.20;;;;;;;2.44;100.00;62242.72;5000919;28;20215;-81
2023/01/12 07:50:35;;;;;;;4.45;3.95;;;;;;;2.87;100.00;62294.44;5237530;23;20243;-82
2023/01/12 07:53:03;;;;;;;5.47;4.72;;;;;;;3.11;100.00;62317.13;5023471;28;20215;-83
2023/01/12 07:55:32;;;;;;;5.28;4.20;;;;;;;3.28;100.00;62336.59;5017591;28;20250;-81
2023/01/12 07:58:01;;;;;;;4.97;3.67;;;;;;;3.37;100.00;62343.31;5025896;28;20206;-82
2023/01/12 08:00:30;;;;;;;5.05;3.78;;;;;;;3.55;100.00;62364.34;5026949;28;20523;-83
2023/01/12 08:03:06;;;;;;;4.00;3.60;;;;;;;3.67;100.00;62374.19;5014301;28;20519;-83
2023/01/12 08:05:34;;;;;;;4.35;3.92;;;;;;;3.72;100.00;62379.31;5013121;28;20211;-83
2023/01/12 08:08:01;;;;;;;3.65;3.40;;;;;;;3.81;100.00;62390.56;4996760;28;20204;-82
2023/01/12 08:10:32;;;;;;;5.03;4.07;;;;;;;3.60;100.00;62366.47;4993872;28;20235;-83
2023/01/12 08:12:59;;;;;;;4.85;4.38;;;;;;;3.30;100.00;62341.16;5012321;28;20199;-83
2023/01/12 08:15:32;;;;;;;5.82;5.18;;;;;;;3.85;100.00;62392.69;5020225;28;20203;-80
2023/01/12 08:18:03;;;;;;;4.32;4.00;;;;;;;3.78;100.00;62387.50;5015410;28;20223;-84
2023/01/12 08:20:33;;;;;;;7.78;4.88;;;;;;;3.57;100.00;62368.41;5215051;23;20239;-83
2023/01/12 08:23:03;;;;;;;5.75;4.25;;;;;;;3.30;100.00;62339.16;4996122;28;20201;-83
2023/01/12 08:25:37;;;;;;;6.05;5.20;;;;;;;3.49;100.00;62358.19;4994659;28;20230;-83
2023/01/12 08:28:08;;;;;;;8.55;5.35;;;;;;;3.58;100.00;62366.91;4993546;28;20204;-82
2023/01/12 08:30:39;;;;;;;6.63;4.95;;;;;;;3.59;100.00;62365.44;4992713;28;20236;-83
2023/01/12 08:35:42;;;;;;;6.50;4.57;;;;;;;3.51;100.00;62360.75;5106330;23;20230;-82
2023/01/12 08:38:10;;;;;;;7.60;5.32;;;;;;;3.56;100.00;62367.91;5017817;28;20211;-81
2023/01/12 08:46:11;;;;;;;9.35;6.43;;;;;;;3.65;100.00;62369.09;5015198;28;20515;-82
2023/01/12 08:48:38;;;;;;;12.60;9.13;;;;;;;4.00;100.00;62405.09;4997205;28;20262;-83
2023/01/12 08:51:09;;;;;;;6.30;5.53;;;;;;;3.86;100.00;62393.19;5014275;28;20242;-81
2023/01/12 08:53:38;;;;;;;11.15;7.75;;;;;;;4.13;100.00;62423.50;4999566;28;20216;-82
2023/01/12 08:56:08;;;;;;;6.72;5.63;;;;;;;3.78;100.00;62388.00;5000979;28;20227;-81
2023/01/12 08:58:35;;;;;;;7.80;6.00;;;;;;;3.30;100.00;62336.13;5006529;28;20188;-82
2023/01/12 09:01:15;;;;;;;8.43;5.93;;;;;;;3.65;100.00;62374.63;5017587;28;20227;-81
2023/01/12 09:03:44;;;;;;;4.80;4.32;;;;;;;3.02;100.00;62312.88;5015634;28;20196;-82
2023/01/12 09:06:17;;;;;;;11.57;5.90;;;;;;;2.94;100.00;62302.16;5017374;28;20243;-82
2023/01/12 09:08:49;;;;;;;6.18;5.22;;;;;;;2.75;100.00;62285.16;5016336;28;20199;-81
2023/01/12 09:11:18;;;;;;;6.15;5.45;;;;;;;2.99;100.00;62301.75;5018088;28;20223;-83
2023/01/12 09:13:46;;;;;;;8.55;6.38;;;;;;;3.14;100.00;62319.69;5017658;28;20204;-81
2023/01/12 09:16:22;;;;;;;7.30;5.85;;;;;;;3.43;100.00;62352.53;5017635;28;20231;-82
2023/01/12 09:18:49;;;;;;;6.13;5.50;;;;;;;3.28;100.00;62334.06;5013202;28;20235;-83
2023/01/12 09:21:19;;;;;;;6.32;5.20;;;;;;;3.35;100.00;62343.78;4996151;28;20244;-81
2023/01/12 09:23:48;;;;;;;6.32;5.28;;;;;;;3.24;100.00;62329.97;4997091;28;20220;-81
2023/01/12 09:26:17;;;;;;;5.88;5.03;;;;;;;3.46;100.00;62355.63;4996516;28;20224;-83
2023/01/12 09:28:46;;;;;;;5.97;4.80;;;;;;;3.41;100.00;62344.94;5007710;28;20202;-81
2023/01/12 09:31:16;;;;;;;4.85;4.38;;;;;;;3.69;100.00;62381.28;5016994;28;20235;-82
2023/01/12 09:33:44;;;;;;;4.90;4.07;;;;;;;3.42;100.00;62348.97;5015294;28;20204;-81
2023/01/12 09:36:13;;;;;;;5.43;4.55;;;;;;;3.30;100.00;62341.69;5016710;28;20371;-82
2023/01/12 09:38:42;;;;;;;6.82;4.82;;;;;;;3.61;100.00;62368.00;4997875;28;20235;-82
2023/01/12 09:41:12;;;;;;;6.53;4.50;;;;;;;3.53;100.00;62362.81;4997786;28;20230;-82
2023/01/12 09:49:17;;;;;;;6.82;4.90;;;;;;;3.45;100.00;62354.06;5014611;28;20278;-82
2023/01/12 09:51:56;;;;;;;7.82;5.45;;;;;;;3.13;100.00;62318.66;5015381;28;20220;-82
2023/01/12 09:54:23;;;;;;;4.82;3.60;;;;;;;2.93;100.00;62298.63;5015297;28;20203;-83
2023/01/12 09:57:02;;;;;;;4.55;4.20;;;;;;;3.03;100.00;62310.91;5015933;28;20242;-83
2023/01/12 09:59:40;;;;;;;7.47;3.72;;;;;;;2.65;100.00;62271.84;5015306;28;20271;-82
2023/01/12 10:02:12;;;;;;;6.65;4.90;;;;;;;3.15;100.00;62321.22;5013380;28;20535;-82
2023/01/12 10:04:40;;;;;;;7.00;4.97;;;;;;;3.31;100.00;62342.19;5015141;28;20200;-81
2023/01/12 10:07:14;;;;;;;7.30;4.60;;;;;;;3.05;100.00;62310.44;5016906;28;20246;-83
2023/01/12 10:09:41;;;;;;;5.68;4.38;;;;;;;3.30;100.00;62343.66;5016183;28;20246;-82
2023/01/12 10:12:19;;;;;;;8.55;6.22;;;;;;;3.68;100.00;62374.69;5014383;28;20267;-81
2023/01/12 10:14:59;;;;;;;12.35;8.60;;;;;;;3.70;100.00;62381.78;5014641;28;20225;-82
2023/01/12 10:17:38;;;;;;;16.17;12.60;;;;;;;3.75;100.00;62384.41;5011234;28;20234;-81
2023/01/12 10:20:16;;;;;;;8.57;6.20;;;;;;;4.01;100.00;62409.16;5010940;28;20199;-82
2023/01/12 10:22:47;;;;;;;10.13;6.05;;;;;;;3.72;100.00;62381.31;5008692;28;20220;-80
2023/01/12 10:25:24;;;;;;;5.38;4.00;;;;;;;4.09;100.00;62416.88;5009543;28;20219;-82
2023/01/12 10:27:53;;;;;;;6.93;4.50;;;;;;;3.91;100.00;62398.88;5015370;28;20219;-83
2023/01/12 10:30:26;;;;;;;5.35;4.78;;;;;;;3.89;100.00;62396.28;5013398;28;20239;-81
2023/01/12 10:32:54;;;;;;;6.20;4.43;;;;;;;4.03;100.00;62411.22;5009880;28;20227;-81
2023/01/12 10:35:24;;;;;;;4.35;3.95;;;;;;;4.26;100.00;62436.88;5012389;28;20213;-82
2023/01/12 10:37:53;;;;;;;8.60;5.70;;;;;;;4.22;100.00;62432.75;5015138;28;20227;-80
2023/01/12 10:40:27;;;;;;;3.10;2.80;;;;;;;4.21;100.00;62431.72;5014344;28;20270;-81
2023/01/12 10:43:22;;;;;;;5.57;3.72;;;;;;;3.30;100.00;62336.66;5014087;28;20266;-81
2023/01/12 10:46:10;;;;;;;5.70;4.28;;;;;;;3.77;100.00;62384.47;4996662;28;20228;-81
2023/01/12 10:48:42;;;;;;;5.15;4.57;;;;;;;3.87;100.00;62394.22;4993610;28;20268;-81
2023/01/12 10:51:23;;;;;;;6.28;4.13;;;;;;;3.33;100.00;62339.72;5011866;28;20273;-81
2023/01/12 10:53:56;;;;;;;4.72;2.53;;;;;;;3.61;100.00;62365.47;5015828;28;20206;-82
2023/01/12 10:56:28;;;;;;;2.63;2.42;;;;;;;3.22;100.00;62328.44;5015002;28;20475;-81
2023/01/12 10:59:01;;;;;;;3.47;3.17;;;;;;;3.08;100.00;62314.03;5015356;28;20199;-83
2023/01/12 11:01:44;;;;;;;2.30;2.10;;;;;;;3.41;100.00;62349.97;4996144;28;20224;-82
2023/01/12 11:04:16;;;;;;;2.67;2.47;;;;;;;3.45;100.00;62354.06;4999027;28;20204;-82
2023/01/12 11:06:45;;;;;;;2.80;2.50;;;;;;;3.21;100.00;62324.88;5002460;28;20219;-80
2023/01/12 11:09:23;;;;;;;3.50;3.20;;;;;;;3.17;100.00;62320.25;5013518;28;20226;-82
2023/01/12 11:11:57;;;;;;;3.83;3.47;;;;;;;3.31;100.00;62340.19;5013025;28;20250;-83
2023/01/12 11:14:28;;;;;;;4.25;3.83;;;;;;;3.55;100.00;62364.84;5015844;28;20192;-80
2023/01/12 11:17:06;;;;;;;3.58;3.28;;;;;;;3.46;100.00;62355.63;5010325;28;20552;-81
2023/01/12 11:19:41;;;;;;;5.50;3.13;;;;;;;3.81;100.00;62385.53;5011805;28;20318;-81
2023/01/12 11:22:13;;;;;;;3.13;2.85;;;;;;;3.05;100.00;62312.94;5013143;28;20227;-81
2023/01/12 11:24:48;;;;;;;3.58;3.28;;;;;;;3.06;100.00;62311.97;5009495;28;20206;-81
2023/01/12 11:27:21;;;;;;;3.38;3.17;;;;;;;3.29;100.00;62335.09;5012590;28;20429;-80
2023/01/12 11:29:58;;;;;;;4.65;3.97;;;;;;;3.81;100.00;62386.06;5012755;28;20238;-79
2023/01/12 11:32:34;;;;;;;5.00;4.30;;;;;;;3.71;100.00;62380.81;5014271;28;20250;-81
2023/01/12 11:35:08;;;;;;;4.32;3.70;;;;;;;3.79;100.00;62388.53;5011731;28;20211;-79
2023/01/12 11:37:41;;;;;;;3.45;2.97;;;;;;;4.09;100.00;62416.88;4991430;28;20227;-81
2023/01/12 11:40:21;;;;;;;3.60;3.00;;;;;;;4.16;100.00;62422.06;4993986;28;20204;-79
2023/01/12 11:45:46;;;;;;;3.15;2.95;;;;;;;3.69;100.00;62373.72;5003154;28;20262;-81
2023/01/12 11:48:22;;;;;;;4.00;3.70;;;;;;;4.03;100.00;62408.69;5014696;28;20257;-80
2023/01/12 11:50:54;;;;;;;4.80;4.35;;;;;;;4.17;100.00;62425.09;5014009;28;20242;-80
2023/01/12 11:53:24;;;;;;;7.22;4.57;;;;;;;4.41;100.00;62452.81;5012242;28;20199;-81
2023/01/12 11:56:08;;;;;;;4.13;3.70;;;;;;;4.77;100.00;62489.34;4992537;28;20525;-82
2023/01/12 11:58:48;;;;;;;4.70;3.90;;;;;;;4.62;100.00;62471.41;4995239;28;20255;-81
2023/01/12 12:01:23;;;;;;;3.70;3.40;;;;;;;4.29;100.00;62437.97;4994148;28;20405;-81
2023/01/12 12:03:56;;;;;;;3.92;3.55;;;;;;;4.71;100.00;62478.66;5003790;28;20222;-82
2023/01/12 12:07:04;;;;;;;3.72;3.42;;;;;;;4.60;100.00;62469.88;5015842;28;20283;-81
2023/01/12 12:09:45;;;;;;;4.10;3.80;;;;;;;4.56;100.00;62467.75;5018976;28;20190;-81
2023/01/12 12:12:22;;;;;;;13.90;6.43;;;;;;;4.34;100.00;62442.59;5020643;28;20222;-80
2023/01/12 12:15:04;;;;;;;10.80;6.80;;;;;;;4.74;100.00;62489.31;5020573;28;20477;-82
2023/01/12 12:17:45;;;;;;;3.50;3.30;;;;;;;4.19;100.00;62430.19;5020357;28;20286;-80
2023/01/12 12:20:27;;;;;;;7.40;6.00;;;;;;;4.23;100.00;62436.28;5016317;28;20238;-81
2023/01/12 12:23:12;;;;;;;6.72;5.82;;;;;;;4.43;100.00;62449.84;5019142;28;20207;-81
2023/01/12 12:25:50;;;;;;;5.40;4.78;;;;;;;4.90;100.00;62502.75;5019676;28;20199;-81
2023/01/12 12:28:57;;;;;;;4.47;3.97;;;;;;;5.21;100.00;62536.69;5011568;28;20192;-80
2023/01/12 12:31:39;;;;;;;4.45;4.05;;;;;;;5.09;100.00;62522.31;4987628;28;20239;-82
2023/01/12 12:34:34;;;;;;;3.78;3.42;;;;;;;5.06;100.00;62516.19;4996601;28;20219;-81